Time;durP1;ratioP1;P1;durP2;ratioP2;P2;SDS_P1;SDS_P2;PMS_P1;PMS_P2;Temp;Humidity;BMP_temperature;BMP_pressure;BME280_temperature;BME280_humidity;BME280_pressure;Samples;Min_cycle;Max_cycle;Signal;HPM_P1;HPM_P2
2023/03/18 00:01:45;;;;;;;3.10;2.40;;;;;;;15.92;45.89;96435.47;4958639;28;20226;-89
2023/03/18 00:04:13;;;;;;;2.50;2.30;;;;;;;17.15;45.91;96624.78;4963737;28;20351;-87
2023/03/18 00:06:40;;;;;;;3.17;2.57;;;;;;;17.74;45.96;96720.69;4955043;28;20254;-88
2023/03/18 00:09:07;;;;;;;2.73;2.40;;;;;;;19.20;46.12;96975.41;4963708;28;20667;-89
2023/03/18 00:11:34;;;;;;;3.90;2.30;;;;;;;17.94;46.09;96767.88;4985652;28;20203;-89
2023/03/18 00:14:01;;;;;;;3.30;2.27;;;;;;;18.67;46.00;96936.41;4964320;28;20219;-88
2023/03/18 00:16:28;;;;;;;2.93;2.50;;;;;;;18.82;46.06;96927.56;4947057;28;20254;-88
2023/03/18 00:18:55;;;;;;;3.30;2.50;;;;;;;18.83;46.26;96925.88;4963568;28;20212;-90
2023/03/18 00:21:22;;;;;;;3.23;2.70;;;;;;;19.03;45.98;96971.50;4969472;28;20682;-87
2023/03/18 00:23:49;;;;;;;2.63;2.30;;;;;;;18.91;46.42;96944.78;4982240;28;20687;-89
2023/03/18 00:26:16;;;;;;;3.57;2.70;;;;;;;19.13;46.21;96985.38;4944866;28;20662;-89
2023/03/18 00:28:42;;;;;;;3.23;2.50;;;;;;;18.05;46.25;96818.28;4941472;28;20614;-87
2023/03/18 00:31:10;;;;;;;4.90;2.50;;;;;;;19.18;46.17;97009.28;4940087;28;20204;-88
2023/03/18 00:33:38;;;;;;;2.53;2.33;;;;;;;19.52;46.30;97068.13;4982159;28;20223;-89
2023/03/18 00:36:08;;;;;;;3.50;2.63;;;;;;;18.76;46.21;96939.22;4985775;28;20655;-89
2023/03/18 00:38:35;;;;;;;3.10;2.67;;;;;;;19.33;46.39;97038.69;4963694;28;20654;-88
2023/03/18 00:41:11;;;;;;;3.10;2.30;;;;;;;17.64;46.25;96762.72;4985770;28;20738;-88
2023/03/18 00:43:45;;;;;;;3.50;2.70;;;;;;;17.66;46.35;96804.28;4950209;28;20237;-89
2023/03/18 00:46:15;;;;;;;3.17;2.40;;;;;;;19.03;46.49;96993.53;4963214;28;20207;-88
2023/03/18 00:48:42;;;;;;;2.53;2.33;;;;;;;16.35;46.33;96543.41;4957351;28;20634;-84
2023/03/18 00:51:12;;;;;;;2.50;2.30;;;;;;;15.82;46.62;96485.00;4947744;28;20208;-89
2023/03/18 00:53:40;;;;;;;2.73;2.50;;;;;;;18.85;46.42;96980.25;4959198;28;20223;-89
2023/03/18 00:56:07;;;;;;;2.97;2.50;;;;;;;19.42;46.59;97083.97;4970278;28;20425;-87
2023/03/18 00:58:35;;;;;;;2.50;2.27;;;;;;;18.14;46.41;96882.13;4966195;28;20195;-88
2023/03/18 01:01:05;;;;;;;2.43;2.23;;;;;;;16.71;46.62;96619.94;4965719;28;20208;-88
2023/03/18 01:03:32;;;;;;;3.03;2.50;;;;;;;18.35;46.57;96909.06;4961067;28;20228;-88
2023/03/18 01:06:01;;;;;;;3.40;2.33;;;;;;;18.60;46.66;96953.19;4943547;28;20194;-88
2023/03/18 01:08:29;;;;;;;2.70;2.50;;;;;;;18.73;46.51;96973.09;4959000;28;21365;-90
2023/03/18 01:10:55;;;;;;;2.40;2.13;;;;;;;18.52;46.52;96926.63;4940342;28;20203;-89
2023/03/18 01:13:25;;;;;;;2.60;2.40;;;;;;;19.26;46.69;97054.56;4983188;28;20223;-88
2023/03/18 01:15:51;;;;;;;2.70;2.40;;;;;;;18.75;47.05;96963.84;4937908;28;20663;-89
2023/03/18 01:18:18;;;;;;;2.40;2.20;;;;;;;18.92;46.92;96993.22;4953519;28;20211;-88
2023/03/18 01:20:45;;;;;;;2.40;2.20;;;;;;;17.67;46.76;96772.97;4971630;28;20199;-88
2023/03/18 01:23:12;;;;;;;3.00;2.43;;;;;;;19.22;46.75;97050.19;4967031;28;20276;-89
2023/03/18 01:25:39;;;;;;;2.80;2.50;;;;;;;18.08;46.38;96851.41;4948142;28;20664;-88
2023/03/18 01:28:06;;;;;;;2.30;2.10;;;;;;;17.90;46.59;96822.00;4945916;28;20660;-88
2023/03/18 01:30:34;;;;;;;2.43;2.23;;;;;;;18.94;46.46;97004.31;4956222;28;20195;-88
2023/03/18 01:33:03;;;;;;;2.87;2.40;;;;;;;18.55;46.54;96939.44;4988429;28;20226;-89
2023/03/18 01:35:31;;;;;;;2.37;2.17;;;;;;;18.92;46.70;96994.91;4949290;28;20290;-88
2023/03/18 01:37:58;;;;;;;3.00;2.60;;;;;;;16.84;46.71;96644.88;4971304;28;20204;-89
2023/03/18 01:40:25;;;;;;;3.13;2.77;;;;;;;18.75;46.99;97007.09;4965056;28;20227;-89
2023/03/18 01:42:56;;;;;;;2.80;2.60;;;;;;;18.23;46.62;96896.81;4941271;28;20225;-88
2023/03/18 01:45:27;;;;;;;2.80;2.50;;;;;;;18.35;46.50;96920.09;4952147;28;20529;-87
2023/03/18 01:47:54;;;;;;;2.60;2.37;;;;;;;19.13;46.87;97056.69;4967299;28;20206;-89
2023/03/18 01:50:26;;;;;;;2.70;2.40;;;;;;;19.17;46.74;97055.97;4968209;28;20235;-88
2023/03/18 01:52:58;;;;;;;2.73;2.43;;;;;;;18.91;46.71;97011.84;4964489;28;20219;-88
2023/03/18 01:55:27;;;;;;;2.67;2.30;;;;;;;19.01;46.82;97036.78;4955670;28;20225;-88
2023/03/18 01:57:53;;;;;;;2.83;2.53;;;;;;;18.62;46.67;96968.50;4958982;28;20733;-88
2023/03/18 02:00:22;;;;;;;2.97;2.50;;;;;;;18.62;46.67;96992.25;4957923;28;20207;-89
2023/03/18 02:02:49;;;;;;;2.60;2.40;;;;;;;18.13;47.00;96894.78;4981314;28;20301;-88
2023/03/18 02:05:23;;;;;;;2.50;2.30;;;;;;;19.35;46.58;97097.31;5116327;23;20230;-85
2023/03/18 02:07:50;;;;;;;2.43;2.23;;;;;;;19.02;46.60;97043.63;5023297;28;20211;-85
2023/03/18 02:10:27;;;;;;;2.47;2.27;;;;;;;19.34;46.61;97106.66;4982176;28;20210;-85
2023/03/18 02:12:59;;;;;;;2.37;2.10;;;;;;;19.34;46.77;97105.78;4997010;28;20280;-84
2023/03/18 02:15:27;;;;;;;2.80;2.10;;;;;;;19.34;46.69;97110.88;4997862;28;20230;-85
2023/03/18 02:18:04;;;;;;;3.33;2.73;;;;;;;16.63;46.70;96663.56;5024630;28;20214;-85
2023/03/18 02:20:47;;;;;;;2.60;2.40;;;;;;;19.34;46.34;97164.41;5015131;28;20210;-84
2023/03/18 02:23:29;;;;;;;2.77;2.50;;;;;;;19.01;46.44;97059.69;5013140;28;20313;-85
2023/03/18 02:26:14;;;;;;;2.87;2.47;;;;;;;19.02;46.77;97060.56;5042413;28;20205;-85
2023/03/18 02:28:41;;;;;;;2.80;2.50;;;;;;;19.32;46.75;97113.38;5034924;28;20217;-84
2023/03/18 02:31:10;;;;;;;2.80;2.60;;;;;;;18.64;46.81;97005.00;5036602;28;20288;-85
2023/03/18 02:33:41;;;;;;;3.53;2.70;;;;;;;17.86;46.79;96860.84;5019486;28;20566;-84
2023/03/18 02:36:15;;;;;;;2.83;2.60;;;;;;;19.32;46.60;97117.59;5017008;28;20210;-84
2023/03/18 02:38:42;;;;;;;2.97;2.67;;;;;;;19.32;46.69;97128.69;5020459;28;20477;-84
2023/03/18 02:41:17;;;;;;;3.23;2.73;;;;;;;19.32;46.89;97126.13;5030986;28;20297;-84
2023/03/18 02:43:43;;;;;;;3.23;2.87;;;;;;;18.23;46.77;96940.03;5035652;28;20796;-85
2023/03/18 02:46:11;;;;;;;2.97;2.50;;;;;;;19.32;46.60;97150.72;5032634;28;20224;-85
2023/03/18 02:48:41;;;;;;;3.13;2.83;;;;;;;17.74;46.72;96861.28;5017816;28;20198;-85
2023/03/18 02:51:10;;;;;;;2.80;2.50;;;;;;;19.32;46.77;97125.25;5016885;28;20205;-84
2023/03/18 02:53:37;;;;;;;3.10;2.80;;;;;;;19.30;46.65;97124.34;5018032;28;20214;-84
2023/03/18 02:56:04;;;;;;;2.60;2.37;;;;;;;18.50;46.63;96983.38;5031305;28;20272;-85
2023/03/18 02:58:31;;;;;;;3.07;2.73;;;;;;;19.31;46.73;97128.63;5024563;28;20206;-85
2023/03/18 03:00:59;;;;;;;2.80;2.50;;;;;;;15.54;46.26;96477.22;5036455;28;20205;-85
2023/03/18 03:03:26;;;;;;;3.20;2.90;;;;;;;19.31;46.76;97129.50;5032709;28;20298;-83
2023/03/18 03:05:53;;;;;;;2.47;2.27;;;;;;;16.72;46.75;96689.28;5015186;28;20202;-85
2023/03/18 03:08:23;;;;;;;2.50;2.30;;;;;;;18.59;46.67;97011.66;5030005;28;20208;-85
2023/03/18 03:10:51;;;;;;;2.63;2.30;;;;;;;19.30;46.81;97132.84;5020099;28;20645;-84
2023/03/18 03:13:26;;;;;;;3.50;2.90;;;;;;;19.29;46.95;97136.22;5016131;28;20194;-84
2023/03/18 03:15:56;;;;;;;3.53;2.83;;;;;;;19.30;46.87;97137.94;5028346;28;20290;-85
2023/03/18 03:18:27;;;;;;;3.00;2.70;;;;;;;19.30;46.82;97137.09;5028800;28;20197;-84
2023/03/18 03:20:56;;;;;;;3.03;2.63;;;;;;;17.66;47.05;96862.72;5025007;28;20276;-84
2023/03/18 03:23:24;;;;;;;3.13;2.77;;;;;;;17.80;46.80;96935.19;5015150;28;20229;-85
2023/03/18 03:25:54;;;;;;;3.30;2.73;;;;;;;16.96;46.81;96739.19;5035506;28;20229;-84
2023/03/18 03:28:21;;;;;;;3.03;2.77;;;;;;;15.58;46.74;96498.44;5030043;28;20685;-85
2023/03/18 03:30:48;;;;;;;2.83;2.53;;;;;;;19.29;47.16;97143.88;5032358;28;21863;-84
2023/03/18 03:33:14;;;;;;;3.00;2.70;;;;;;;19.28;46.92;97137.06;5030843;28;20661;-84
2023/03/18 03:35:41;;;;;;;3.40;3.00;;;;;;;19.28;46.79;97136.16;5027534;28;20198;-84
2023/03/18 03:38:08;;;;;;;3.27;2.77;;;;;;;19.28;47.03;97137.06;5035868;28;20213;-85
2023/03/18 03:40:35;;;;;;;2.60;2.40;;;;;;;17.30;47.08;96891.03;5027407;28;20296;-85
2023/03/18 03:43:01;;;;;;;3.13;2.83;;;;;;;18.63;46.76;97036.38;5019051;28;20263;-85
2023/03/18 03:45:28;;;;;;;3.73;2.83;;;;;;;19.28;46.88;97159.09;5033645;28;20229;-83
2023/03/18 03:47:55;;;;;;;3.27;2.93;;;;;;;19.28;46.92;97165.06;5027107;28;20206;-85
2023/03/18 03:50:22;;;;;;;3.60;3.10;;;;;;;19.27;46.87;97158.22;5028101;28;20673;-84
2023/03/18 03:52:48;;;;;;;3.20;2.90;;;;;;;18.63;47.24;97087.28;5017544;28;20225;-84
2023/03/18 03:55:23;;;;;;;3.00;2.70;;;;;;;16.81;46.91;96735.28;5016034;28;20594;-85
2023/03/18 03:57:50;;;;;;;3.37;3.07;;;;;;;18.92;46.87;97109.47;5029205;28;20236;-85
2023/03/18 04:00:19;;;;;;;3.00;2.67;;;;;;;18.93;46.88;97109.53;5033750;28;20201;-84
2023/03/18 04:02:46;;;;;;;3.67;3.07;;;;;;;18.35;46.93;97016.75;5017831;28;20261;-85
2023/03/18 04:05:16;;;;;;;3.37;3.07;;;;;;;19.27;46.88;97176.06;5032157;28;20245;-84
2023/03/18 04:07:45;;;;;;;3.17;2.77;;;;;;;15.80;47.42;96650.38;5013556;28;20313;-84
2023/03/18 04:10:14;;;;;;;3.30;3.00;;;;;;;19.28;46.66;97176.94;5015103;28;20285;-85
2023/03/18 04:12:41;;;;;;;3.30;2.80;;;;;;;19.28;46.77;97180.34;5029062;28;20202;-85
2023/03/18 04:15:11;;;;;;;3.03;2.73;;;;;;;17.41;46.69;96921.06;5019023;28;20221;-84
2023/03/18 04:17:40;;;;;;;3.80;3.30;;;;;;;17.91;46.84;96951.69;5019287;28;20202;-85
2023/03/18 04:20:08;;;;;;;4.60;3.37;;;;;;;17.12;46.50;96824.34;5030773;28;20244;-84
2023/03/18 04:22:35;;;;;;;3.50;2.93;;;;;;;13.02;46.59;96088.53;5016091;28;20974;-86
2023/03/18 04:25:01;;;;;;;3.57;3.20;;;;;;;19.26;46.75;97168.34;5031322;28;20224;-85
2023/03/18 04:27:28;;;;;;;3.20;2.90;;;;;;;19.26;46.78;97168.34;5033261;28;20272;-84
2023/03/18 04:29:55;;;;;;;3.27;2.97;;;;;;;19.26;46.77;97168.34;5031571;28;20198;-85
2023/03/18 04:32:24;;;;;;;3.23;2.93;;;;;;;19.26;46.95;97173.44;5035579;28;20696;-84
2023/03/18 04:34:50;;;;;;;3.20;2.90;;;;;;;19.26;47.29;97178.53;5047975;28;20215;-85
2023/03/18 04:37:18;;;;;;;3.37;3.00;;;;;;;19.26;46.95;97176.84;5030600;28;20270;-85
2023/03/18 04:39:48;;;;;;;3.23;2.93;;;;;;;18.77;46.90;97088.63;5018241;28;20198;-84
2023/03/18 04:42:16;;;;;;;3.20;2.90;;;;;;;16.09;46.94;96643.06;5030928;28;20198;-85
2023/03/18 04:44:44;;;;;;;3.40;2.70;;;;;;;17.74;46.76;96919.72;5014239;28;20238;-85
2023/03/18 04:47:11;;;;;;;3.07;2.77;;;;;;;19.26;46.77;97181.06;5031010;28;20199;-85
2023/03/18 04:49:38;;;;;;;2.97;2.77;;;;;;;19.25;46.94;97185.31;5032538;28;20293;-85
2023/03/18 04:52:06;;;;;;;3.20;2.90;;;;;;;15.36;46.84;96506.91;5025417;28;20253;-85
2023/03/18 04:54:33;;;;;;;3.40;3.10;;;;;;;16.61;47.06;96800.50;5015149;28;20241;-82
2023/03/18 04:57:04;;;;;;;3.03;2.77;;;;;;;19.25;46.37;97180.22;5032270;28;20636;-84
2023/03/18 04:59:34;;;;;;;3.57;3.27;;;;;;;18.83;47.01;97130.38;5031584;28;20208;-83
2023/03/18 05:02:00;;;;;;;3.80;3.40;;;;;;;18.57;47.13;97052.31;5033677;28;20193;-85
2023/03/18 05:04:27;;;;;;;3.07;2.77;;;;;;;19.26;46.79;97168.34;5031607;28;20618;-85
2023/03/18 05:06:57;;;;;;;3.47;2.90;;;;;;;16.82;46.59;96749.69;5038256;28;20205;-85
2023/03/18 05:09:26;;;;;;;3.90;3.10;;;;;;;11.53;46.97;95838.13;5052620;28;20212;-84
2023/03/18 05:11:57;;;;;;;3.37;3.07;;;;;;;18.81;47.06;97095.53;5051465;28;20284;-84
2023/03/18 05:14:27;;;;;;;3.50;3.00;;;;;;;18.73;46.68;97090.19;5035820;28;20229;-84
2023/03/18 05:16:54;;;;;;;3.80;3.27;;;;;;;19.25;46.79;97175.13;5018997;28;20202;-84
2023/03/18 05:19:21;;;;;;;5.20;3.30;;;;;;;19.26;46.56;97178.53;5039451;28;20197;-84
2023/03/18 05:21:48;;;;;;;3.23;2.70;;;;;;;18.76;46.58;97087.75;5041944;28;20208;-85
2023/03/18 05:24:15;;;;;;;4.37;3.53;;;;;;;18.58;46.34;97058.25;5041224;28;20624;-84
2023/03/18 05:26:42;;;;;;;3.43;3.13;;;;;;;19.25;46.55;97180.22;5031537;28;20717;-85
2023/03/18 05:29:08;;;;;;;3.73;3.17;;;;;;;17.98;46.48;96958.72;5039395;28;20208;-84
2023/03/18 05:31:35;;;;;;;4.27;3.17;;;;;;;19.25;46.77;97177.69;5035179;28;20209;-82
2023/03/18 05:34:02;;;;;;;3.87;3.47;;;;;;;19.25;46.78;97182.78;5014376;28;20222;-85
2023/03/18 05:36:29;;;;;;;4.23;3.20;;;;;;;17.95;46.72;96967.91;5026514;28;20202;-85
2023/03/18 05:38:56;;;;;;;3.53;2.97;;;;;;;19.25;46.88;97189.53;5042088;28;20205;-85
2023/03/18 05:41:23;;;;;;;3.13;2.83;;;;;;;18.32;46.77;97031.91;5054526;28;20202;-85
2023/03/18 05:43:49;;;;;;;3.37;3.00;;;;;;;19.24;46.86;97196.31;5006405;28;20672;-81
2023/03/18 05:46:16;;;;;;;3.53;3.23;;;;;;;18.72;46.72;97107.94;5056638;28;20206;-84
2023/03/18 05:48:43;;;;;;;3.73;3.17;;;;;;;18.30;46.66;97033.56;5019924;28;20254;-85
2023/03/18 05:51:10;;;;;;;3.10;2.80;;;;;;;18.69;46.91;97101.09;5035671;28;20673;-85
2023/03/18 05:53:37;;;;;;;3.83;3.30;;;;;;;18.70;46.74;97101.94;5023942;28;20221;-82
2023/03/18 05:56:04;;;;;;;3.47;3.03;;;;;;;19.25;46.70;97205.69;5014835;28;20285;-83
2023/03/18 05:58:31;;;;;;;3.57;3.07;;;;;;;18.74;47.28;97111.41;5027342;28;20226;-84
2023/03/18 06:00:59;;;;;;;3.70;3.30;;;;;;;18.87;46.49;97142.44;5019757;28;20229;-84
2023/03/18 06:03:26;;;;;;;3.53;3.23;;;;;;;18.98;46.59;97164.00;5020040;28;20225;-85
2023/03/18 06:05:53;;;;;;;5.80;3.40;;;;;;;18.26;46.73;97031.69;5020594;28;20815;-84
2023/03/18 06:08:19;;;;;;;4.43;3.30;;;;;;;17.60;46.81;96918.41;5001660;28;20229;-84
2023/03/18 06:10:47;;;;;;;4.00;3.23;;;;;;;19.26;46.68;97204.88;5019052;28;20201;-84
2023/03/18 06:13:14;;;;;;;3.47;3.07;;;;;;;18.52;46.79;97073.31;5041744;28;20202;-85
2023/03/18 06:15:40;;;;;;;3.50;3.20;;;;;;;19.28;46.74;97227.88;5023446;28;20217;-85
2023/03/18 06:18:07;;;;;;;3.83;3.43;;;;;;;17.84;46.86;96961.59;5009754;28;20267;-84
2023/03/18 06:20:34;;;;;;;4.10;3.57;;;;;;;18.97;46.86;97156.31;5043441;28;20209;-84
2023/03/18 06:23:01;;;;;;;4.00;3.53;;;;;;;14.72;46.67;96428.53;5026223;28;20275;-85
2023/03/18 06:25:27;;;;;;;3.37;3.07;;;;;;;19.29;46.57;97219.41;5040415;28;20229;-85
2023/03/18 06:27:54;;;;;;;3.67;3.30;;;;;;;14.89;46.49;96465.44;5043345;28;20209;-84
2023/03/18 06:30:20;;;;;;;3.83;3.33;;;;;;;17.78;46.77;96959.69;5024621;28;20201;-86
2023/03/18 06:32:47;;;;;;;4.00;3.40;;;;;;;18.75;46.60;97125.88;5036990;28;20198;-85
2023/03/18 06:35:14;;;;;;;3.70;3.40;;;;;;;18.52;46.50;97108.94;5027221;28;20287;-86
2023/03/18 06:37:41;;;;;;;4.60;3.43;;;;;;;16.47;46.53;96750.97;5043237;28;20201;-87
2023/03/18 06:40:08;;;;;;;3.33;3.03;;;;;;;13.42;46.36;96223.84;5049168;28;20208;-85
2023/03/18 06:42:35;;;;;;;4.50;3.30;;;;;;;17.73;46.37;96970.50;5048542;28;20612;-87
2023/03/18 06:45:02;;;;;;;4.60;4.10;;;;;;;14.16;45.53;96395.97;5048293;28;20218;-86
2023/03/18 06:47:28;;;;;;;5.67;5.13;;;;;;;17.38;44.16;96915.88;5051480;28;20245;-85
2023/03/18 06:49:55;;;;;;;9.23;5.57;;;;;;;16.54;43.16;96757.97;5029155;28;20197;-86
2023/03/18 06:52:22;;;;;;;7.80;5.80;;;;;;;19.25;42.65;97225.22;5039625;28;20212;-88
2023/03/18 06:54:49;;;;;;;6.30;5.50;;;;;;;13.13;42.14;96176.41;5037519;28;20241;-86
2023/03/18 06:57:16;;;;;;;7.63;5.80;;;;;;;15.25;41.86;96542.75;5045617;28;20201;-86
2023/03/18 06:59:42;;;;;;;6.70;5.53;;;;;;;17.67;41.29;96991.47;5048466;28;20321;-85
2023/03/18 07:02:09;;;;;;;7.27;6.00;;;;;;;16.52;41.10;96758.72;5026657;28;20233;-84
2023/03/18 07:04:36;;;;;;;8.47;6.50;;;;;;;18.57;41.03;97151.56;5043863;28;20232;-85
2023/03/18 07:07:03;;;;;;;7.33;5.83;;;;;;;19.17;41.04;97231.72;5014441;28;20194;-86
2023/03/18 07:09:30;;;;;;;7.13;5.60;;;;;;;19.15;40.93;97234.22;5024075;28;20254;-84
2023/03/18 07:11:57;;;;;;;7.47;5.70;;;;;;;19.13;41.39;97233.28;5025951;28;20206;-85
2023/03/18 07:14:24;;;;;;;6.37;5.50;;;;;;;18.83;41.07;97204.22;5031481;28;20226;-84
2023/03/18 07:16:50;;;;;;;7.50;5.80;;;;;;;18.53;41.45;97136.97;5014830;28;20812;-85
2023/03/18 07:19:17;;;;;;;6.93;5.43;;;;;;;15.97;42.02;96703.44;5008437;28;20206;-86
2023/03/18 07:21:45;;;;;;;8.03;5.27;;;;;;;17.10;42.37;96909.75;5026960;28;20236;-85
2023/03/18 07:24:12;;;;;;;6.33;5.40;;;;;;;19.10;42.63;97245.91;5024456;28;20222;-85
2023/03/18 07:26:38;;;;;;;6.20;5.13;;;;;;;19.10;43.27;97251.00;5037533;28;20233;-85
2023/03/18 07:29:05;;;;;;;6.00;5.40;;;;;;;19.10;43.27;97257.81;5057703;28;20204;-85
2023/03/18 07:31:31;;;;;;;7.30;5.40;;;;;;;18.77;43.43;97188.75;5044076;28;20724;-85
2023/03/18 07:33:58;;;;;;;7.23;4.63;;;;;;;19.10;43.38;97245.06;5006837;28;20210;-84
2023/03/18 07:36:25;;;;;;;5.80;5.20;;;;;;;19.10;43.73;97245.91;5043149;28;20643;-85
2023/03/18 07:38:52;;;;;;;5.80;5.20;;;;;;;14.64;43.71;96473.75;5024454;28;20202;-84
2023/03/18 07:41:18;;;;;;;5.73;4.77;;;;;;;19.11;43.88;97252.75;5034485;28;20243;-84
2023/03/18 07:43:45;;;;;;;8.13;5.00;;;;;;;19.12;44.04;97254.47;5044912;28;20221;-84
2023/03/18 07:46:12;;;;;;;5.23;4.70;;;;;;;16.65;44.17;96826.84;5046439;28;20202;-84
2023/03/18 07:48:38;;;;;;;5.13;4.20;;;;;;;19.08;44.37;97239.91;5048192;28;20201;-85
2023/03/18 07:51:05;;;;;;;8.60;4.80;;;;;;;16.61;44.40;96827.56;5037105;28;20194;-85
2023/03/18 07:53:32;;;;;;;5.17;4.67;;;;;;;19.15;44.22;97256.25;5002581;28;20286;-85
2023/03/18 07:55:59;;;;;;;6.90;4.53;;;;;;;18.58;44.47;97157.50;5027633;28;20198;-84
2023/03/18 07:58:26;;;;;;;4.97;4.33;;;;;;;18.57;44.52;97158.31;5026896;28;20677;-86
2023/03/18 08:00:53;;;;;;;5.17;4.20;;;;;;;19.17;44.78;97263.16;5035003;28;20193;-85
2023/03/18 08:03:19;;;;;;;6.00;4.43;;;;;;;19.16;45.23;97260.56;5013927;28;20655;-86
2023/03/18 08:05:46;;;;;;;6.70;3.70;;;;;;;19.17;44.48;97270.81;5031013;28;20618;-85
2023/03/18 08:08:12;;;;;;;4.40;4.00;;;;;;;19.17;45.06;97259.75;5039633;28;20633;-84
2023/03/18 08:10:39;;;;;;;5.07;3.90;;;;;;;17.90;45.03;97038.94;5035797;28;20233;-85
2023/03/18 08:13:05;;;;;;;4.60;3.83;;;;;;;13.62;45.04;96306.22;5005046;28;20707;-86
2023/03/18 08:15:32;;;;;;;4.47;4.07;;;;;;;19.18;45.05;97272.53;5042066;28;20221;-84
2023/03/18 08:18:00;;;;;;;6.90;4.20;;;;;;;14.00;44.85;96383.50;5054265;28;20197;-86
2023/03/18 08:20:27;;;;;;;4.60;3.83;;;;;;;19.06;45.08;97258.50;5022111;28;20202;-87
2023/03/18 08:22:54;;;;;;;4.70;3.90;;;;;;;15.79;45.15;96724.66;5068337;28;20196;-84
2023/03/18 08:25:22;;;;;;;4.00;3.60;;;;;;;19.19;45.22;97278.50;5053001;28;20221;-84
2023/03/18 08:27:49;;;;;;;5.47;3.90;;;;;;;14.04;45.05;96467.03;5057673;28;20229;-85
2023/03/18 08:30:16;;;;;;;5.57;4.00;;;;;;;13.84;45.20;96388.75;5044691;28;20198;-84
2023/03/18 08:32:43;;;;;;;5.10;3.60;;;;;;;19.20;45.29;97276.00;5068608;28;20197;-85
2023/03/18 08:35:10;;;;;;;3.90;3.50;;;;;;;19.20;45.24;97280.22;5052000;28;20217;-84
2023/03/18 08:37:37;;;;;;;4.53;3.73;;;;;;;19.20;45.26;97281.09;5046845;28;20194;-83
2023/03/18 08:40:04;;;;;;;3.63;3.20;;;;;;;19.20;45.34;97278.53;5045955;28;20198;-85
2023/03/18 08:42:31;;;;;;;3.83;3.53;;;;;;;19.21;45.49;97277.72;5052885;28;20217;-83
2023/03/18 08:44:57;;;;;;;5.83;3.40;;;;;;;18.16;44.89;97089.03;5045007;28;20213;-83
2023/03/18 08:47:24;;;;;;;5.93;3.83;;;;;;;19.21;44.93;97266.66;5028117;28;20251;-85
2023/03/18 08:49:50;;;;;;;4.30;3.57;;;;;;;19.21;45.39;97270.09;5035311;28;20575;-84
2023/03/18 08:52:17;;;;;;;5.93;3.50;;;;;;;18.05;45.69;97075.06;5026808;28;20206;-84
2023/03/18 08:54:44;;;;;;;6.87;4.07;;;;;;;18.85;45.58;97206.81;5019393;28;20303;-84
2023/03/18 08:57:11;;;;;;;9.60;5.23;;;;;;;19.21;45.04;97280.28;5043420;28;20265;-85
2023/03/18 08:59:37;;;;;;;6.00;4.57;;;;;;;19.21;45.04;97271.75;5031482;28;20233;-84
2023/03/18 09:02:04;;;;;;;7.57;4.70;;;;;;;19.21;45.05;97272.63;5043212;28;20207;-86
2023/03/18 09:04:31;;;;;;;6.10;4.60;;;;;;;18.89;45.12;97232.44;5059821;28;20279;-85
2023/03/18 09:06:59;;;;;;;7.97;4.60;;;;;;;19.20;45.55;97264.94;5045422;28;20197;-85
2023/03/18 09:09:26;;;;;;;5.53;4.30;;;;;;;17.96;45.72;97036.59;5042884;28;20193;-85
2023/03/18 09:12:08;;;;;;;7.80;4.67;;;;;;;18.61;45.75;97170.34;5046825;28;20205;-85
2023/03/18 09:14:35;;;;;;;7.97;4.57;;;;;;;19.19;45.60;97266.59;5025982;28;20708;-86
2023/03/18 09:17:01;;;;;;;7.87;4.30;;;;;;;19.20;46.23;97272.56;5028302;28;20209;-85
2023/03/18 09:19:28;;;;;;;8.73;4.47;;;;;;;18.04;46.36;97060.63;5042993;28;20271;-85
2023/03/18 09:21:54;;;;;;;7.37;4.50;;;;;;;19.19;46.14;97266.59;5043907;28;20521;-84
2023/03/18 09:24:21;;;;;;;8.43;4.50;;;;;;;17.43;46.23;96964.28;5044940;28;20264;-84
2023/03/18 09:26:48;;;;;;;7.33;4.50;;;;;;;18.54;46.23;97154.00;5018592;28;20198;-85
2023/03/18 09:29:14;;;;;;;7.73;4.80;;;;;;;17.12;46.27;96918.28;5011018;28;20218;-85
2023/03/18 09:31:41;;;;;;;7.13;4.70;;;;;;;18.80;46.32;97199.03;5017552;28;20277;-85
2023/03/18 09:34:08;;;;;;;9.43;4.57;;;;;;;17.83;46.36;97036.09;5037082;28;20218;-85
2023/03/18 09:36:35;;;;;;;6.70;3.83;;;;;;;19.19;46.36;97263.22;5035720;28;20197;-85
2023/03/18 09:39:02;;;;;;;7.23;4.63;;;;;;;18.56;46.50;97151.50;5034148;28;20222;-85
2023/03/18 09:42:20;;;;;;;6.47;4.43;;;;;;;19.20;46.48;97262.38;5022609;28;20198;-85
2023/03/18 09:44:51;;;;;;;7.70;4.37;;;;;;;19.16;46.74;97283.50;4975191;28;20676;-84
2023/03/18 09:47:59;;;;;;;7.80;4.50;;;;;;;18.39;46.29;97145.84;4965116;28;20705;-85
2023/03/18 09:50:37;;;;;;;6.20;4.30;;;;;;;19.20;46.63;97255.63;4977078;28;20198;-84
2023/03/18 09:53:17;;;;;;;8.17;4.37;;;;;;;19.19;46.71;97258.97;5016476;28;20202;-85
2023/03/18 09:55:55;;;;;;;8.13;4.90;;;;;;;17.32;46.62;96980.84;5041975;28;20201;-83
2023/03/18 09:58:27;;;;;;;5.60;4.23;;;;;;;19.21;46.61;97261.56;5034855;28;20207;-85
2023/03/18 10:00:58;;;;;;;6.10;4.40;;;;;;;19.20;46.55;97264.94;5040909;28;20594;-85
2023/03/18 10:03:41;;;;;;;8.93;4.20;;;;;;;18.16;46.63;97080.53;5046482;28;20677;-85
2023/03/18 10:06:16;;;;;;;6.33;4.30;;;;;;;19.19;46.53;97253.88;5025617;28;20264;-85
2023/03/18 10:09:07;;;;;;;6.13;4.33;;;;;;;19.20;46.80;97255.63;5023310;28;20221;-86
2023/03/18 10:11:43;;;;;;;7.73;4.50;;;;;;;19.20;46.84;97255.63;5031737;28;20634;-85
2023/03/18 10:14:19;;;;;;;6.47;4.20;;;;;;;19.20;46.73;97253.06;5041371;28;20280;-85
2023/03/18 10:16:54;;;;;;;6.67;3.70;;;;;;;19.19;46.80;97246.22;5042762;28;20221;-85
2023/03/18 10:19:21;;;;;;;5.97;3.97;;;;;;;12.84;46.61;96155.03;5043188;28;20440;-85
2023/03/18 10:22:06;;;;;;;6.30;4.17;;;;;;;19.20;46.96;97249.66;5041169;28;20231;-86
2023/03/18 10:24:49;;;;;;;6.90;4.20;;;;;;;19.19;46.77;97242.84;5039893;28;20323;-85
2023/03/18 10:27:19;;;;;;;6.07;3.47;;;;;;;18.90;46.88;97187.50;5008237;28;20256;-85
2023/03/18 10:29:51;;;;;;;6.73;4.10;;;;;;;17.56;46.74;96967.34;5036662;28;20226;-84
2023/03/18 10:32:39;;;;;;;5.10;3.90;;;;;;;19.19;46.99;97243.69;5014145;28;20213;-85
2023/03/18 10:35:25;;;;;;;4.60;3.93;;;;;;;18.10;46.91;97063.38;5038746;28;20217;-85
2023/03/18 10:38:03;;;;;;;4.63;3.63;;;;;;;18.03;46.79;97036.00;5024185;28;20198;-83
2023/03/18 10:40:37;;;;;;;5.23;3.60;;;;;;;19.20;46.99;97242.00;5024903;28;20224;-85
2023/03/18 10:43:11;;;;;;;6.03;4.23;;;;;;;19.20;47.02;97234.38;5035428;28;20566;-85
2023/03/18 10:45:37;;;;;;;4.60;3.77;;;;;;;18.72;47.17;97151.22;5020121;28;20232;-85
2023/03/18 10:48:26;;;;;;;4.57;3.70;;;;;;;19.20;46.91;97232.69;5006110;28;20576;-85
2023/03/18 10:50:59;;;;;;;5.20;3.83;;;;;;;17.34;47.05;96941.97;5033338;28;20768;-85
2023/03/18 10:53:32;;;;;;;5.43;3.67;;;;;;;18.56;46.84;97116.72;5036715;28;20206;-83
2023/03/18 10:56:09;;;;;;;5.37;4.10;;;;;;;17.60;47.13;96968.34;5004739;28;20204;-85
2023/03/18 10:58:40;;;;;;;6.40;3.83;;;;;;;19.20;46.99;97221.63;5037843;28;20209;-85
2023/03/18 11:01:08;;;;;;;4.67;3.40;;;;;;;18.67;46.79;97134.91;5022480;28;20201;-85
2023/03/18 11:03:47;;;;;;;7.90;4.17;;;;;;;19.22;46.78;97222.56;5021436;28;20218;-85
2023/03/18 11:06:17;;;;;;;5.67;4.00;;;;;;;18.91;46.88;97167.16;5041612;28;20725;-85
2023/03/18 11:08:46;;;;;;;5.00;3.57;;;;;;;18.56;46.92;97208.34;5037452;28;20209;-86
2023/03/18 11:11:19;;;;;;;5.20;3.93;;;;;;;19.21;46.79;97208.94;5020390;28;20198;-85
2023/03/18 11:13:51;;;;;;;4.20;3.60;;;;;;;18.26;46.77;97039.34;5035468;28;20218;-85
2023/03/18 11:17:01;;;;;;;4.13;3.73;;;;;;;19.21;46.90;97198.75;5023782;28;20257;-85
2023/03/18 11:19:59;;;;;;;4.33;3.67;;;;;;;19.21;46.86;97192.78;5043628;28;20721;-85
2023/03/18 11:22:26;;;;;;;3.97;3.40;;;;;;;17.25;46.95;96841.75;5025072;28;20197;-85
2023/03/18 11:25:12;;;;;;;4.83;3.80;;;;;;;19.20;46.93;97179.19;5024172;28;20253;-85
2023/03/18 11:27:47;;;;;;;4.20;3.30;;;;;;;19.20;46.85;97174.09;5038403;28;20201;-85
2023/03/18 11:30:24;;;;;;;7.37;3.70;;;;;;;19.22;46.77;97181.78;5060739;28;20201;-85
2023/03/18 11:33:10;;;;;;;6.03;3.77;;;;;;;19.20;47.00;97171.56;5036606;28;20205;-84
2023/03/18 11:35:51;;;;;;;5.57;3.40;;;;;;;17.90;46.79;96955.03;5033046;28;20689;-86
2023/03/18 11:38:33;;;;;;;7.87;4.10;;;;;;;19.22;46.92;97175.00;5021102;28;20624;-84
2023/03/18 11:41:23;;;;;;;5.37;3.37;;;;;;;19.22;46.88;97172.44;5034865;28;20215;-85
2023/03/18 11:44:00;;;;;;;5.27;3.50;;;;;;;19.22;46.91;97169.91;5036188;28;20324;-85
2023/03/18 11:46:38;;;;;;;4.33;3.40;;;;;;;18.57;46.85;97054.88;5031183;28;20711;-83